Latest Coastal Weather Observations for Proserpine

IDQ60701

Issued at 1:12 am EST Friday 5 March 2021 (issued every 10 minutes, with the page automatically refreshed every 10 minutes)

About coastal observations | Map of coastal stations | Coastal observations for QLD | Marine services | Other Formats
Station Details ID: 033247 Name: PROSERPINE AIRPORT Lat: -20.49 Lon: 148.56 Height: 19.7 m
Data from the previous 72 hours. | See also: Recent months at Proserpine
Date/Time
EST
Wind Sea
Height
m
Swell Vis
km
Cloud Weather Temp
°C
Press
MSL
hPa
Rain since
9am
mm
Dir  Spd
kts
Gust
kts
Height
m
Period
s
Dir
05/01:00am S 9 13 - - - - 10 Partly cloudy - 23.9 1004.4 1.2
05/12:30am S 10 13 - - - - 10 Partly cloudy - 24.0 1004.7 1.2
05/12:00am SSE 9 13 - - - - 10 Cloudy - 23.9 1005.0 1.2
 
Date/Time
EST
Wind Sea
Height
m
Swell Vis
km
Cloud Weather Temp
°C
Press
MSL
hPa
Rain since
9am
mm
Dir  Spd
kts
Gust
kts
Height
m
Period
s
Dir
04/11:30pm SSE 10 13 - - - - 10 Partly cloudy - 24.2 1005.0 1.2
04/11:00pm SSE 8 14 - - - - 10 Partly cloudy - 24.5 1005.1 1.2
04/10:30pm SSE 8 11 - - - - 10 Partly cloudy - 24.4 1005.2 1.2
04/10:00pm SSE 12 19 - - - - 10 Partly cloudy - 24.8 1005.1 1.2
04/09:30pm SSE 9 15 - - - - 10 Cloudy - 24.3 1005.1 1.2
04/09:00pm SSE 9 15 - - - - 10 Cloudy - 24.0 1004.9 1.2
04/08:30pm SSE 8 13 - - - - 10 Partly cloudy - 23.4 1004.7 1.2
04/08:00pm SSE 9 12 - - - - 10 Partly cloudy - 23.0 1004.5 1.2
04/07:44pm SSE 6 9 - - - - 10 Partly cloudy - 22.9 1004.5 1.2
04/07:30pm SE 9 13 - - - - 6 Partly cloudy - 22.9 1004.8 1.0
04/07:17pm SSE 13 18 - - - - 6 Partly cloudy - 22.9 1004.9 0.8
04/07:15pm SSE 12 18 - - - - 8 Partly cloudy - 22.9 1004.9 0.8
04/07:00pm SSE 13 18 - - - - 4 Partly cloudy - 23.1 1004.7 0.4
04/06:53pm SSE 15 20 - - - - 6 Partly cloudy - 23.2 1004.7 0.2
04/06:49pm SSE 14 19 - - - - 10 Partly cloudy - 23.4 1004.6 0.0
04/06:33pm SSE 17 24 - - - - 6 Partly cloudy - 23.6 1004.3 0.0
04/06:30pm SSE 15 24 - - - - 9 Partly cloudy - 23.8 1004.3 0.0
04/06:00pm SE 15 23 - - - - 10 Cloudy - 24.6 1003.9 0.0
04/05:30pm SE 17 25 - - - - 10 Partly cloudy - 25.2 1003.7 0.0
04/05:00pm SE 16 25 - - - - 10 Partly cloudy - 25.5 1003.2 0.0
04/04:33pm SE 15 26 - - - - 10 Partly cloudy - 26.4 1003.1 0.0
04/04:30pm SE 13 20 - - - - 10 Partly cloudy - 26.3 1003.1 0.0
04/04:00pm SE 13 18 - - - - 10 Partly cloudy - 25.0 1003.1 0.0
04/03:44pm ESE 18 25 - - - - 10 Partly cloudy - 24.6 1003.1 0.0
04/03:31pm ESE 21 32 - - - - 10 Partly cloudy - 24.8 1003.1 0.0
04/03:30pm ESE 21 29 - - - - 10 Partly cloudy - 25.1 1003.0 0.0
04/03:12pm ESE 20 31 - - - - 10 Partly cloudy - 26.5 1002.6 0.0
04/03:00pm SE 19 26 - - - - 10 Cloudy - 27.6 1002.6 0.0
04/02:48pm SE 20 25 - - - - 10 Partly cloudy - 27.7 1002.6 0.0
04/02:30pm E 13 22 - - - - 10 Partly cloudy - 27.2 1002.8 0.0
04/02:00pm SE 19 27 - - - - 10 Partly cloudy - 28.7 1002.8 0.0
04/01:32pm ESE 17 27 - - - - 10 Partly cloudy - 29.1 1002.9 0.0
04/01:30pm ESE 17 24 - - - - 10 Partly cloudy - 29.1 1002.9 0.0
04/01:00pm SE 19 26 - - - - 10 Partly cloudy - 29.1 1003.2 0.0
04/12:30pm SE 16 21 - - - - 10 Partly cloudy - 29.4 1003.4 0.0
04/12:26pm ESE 17 27 - - - - 10 Partly cloudy - 29.3 1003.4 0.0
04/12:00pm SE 20 27 - - - - 10 Mostly clear - 29.7 1003.9 0.0
04/11:30am SE 16 21 - - - - 10 - - 28.9 1004.3 0.0
04/11:00am SE 18 23 - - - - 10 Partly cloudy - 29.3 1004.8 0.0
04/10:30am SE 16 22 - - - - 10 Partly cloudy - 28.7 1004.8 0.0
04/10:00am SE 17 24 - - - - 10 Partly cloudy - 28.3 1005.0 0.0
04/09:30am SE 15 19 - - - - 10 Partly cloudy - 29.0 1005.0 0.0
04/09:00am SE 15 19 - - - - 10 Mostly clear - 28.1 1004.8 0.0
04/08:30am SSE 11 17 - - - - 10 Partly cloudy - 27.6 1004.9 0.0
04/08:00am SSE 13 19 - - - - 10 Partly cloudy - 26.7 1004.7 0.0
04/07:30am SSE 9 13 - - - - 10 - - 25.8 1004.4 0.0
04/07:00am S 8 11 - - - - 10 - - 25.3 1004.1 0.0
04/06:30am S 8 12 - - - - 10 - - 24.5 1003.9 0.0
04/06:00am SSE 8 10 - - - - 10 Mostly cloudy - 24.3 1003.7 0.0
04/05:30am S 9 12 - - - - 10 Partly cloudy - 24.5 1003.4 0.0
04/05:00am S 8 11 - - - - 10 Partly cloudy - 24.4 1003.3 0.0
04/04:30am SSE 8 11 - - - - 10 Partly cloudy - 24.5 1003.2 0.0
04/04:00am S 6 9 - - - - 10 Partly cloudy - 24.2 1003.0 0.0
04/03:30am S 6 8 - - - - 10 - - 24.3 1003.0 0.0
04/03:00am S 8 11 - - - - 10 Cloudy - 24.7 1003.3 0.0
04/02:30am SSE 9 13 - - - - 10 Partly cloudy - 24.8 1003.4 0.0
04/02:00am SSE 9 14 - - - - 10 Partly cloudy - 24.9 1003.6 0.0
04/01:30am SSE 9 12 - - - - 10 Partly cloudy - 25.2 1004.2 0.0
04/01:00am SSE 9 12 - - - - 10 - - 25.2 1004.4 0.0
04/12:30am SSE 8 11 - - - - 10 Partly cloudy - 24.9 1004.7 0.0
04/12:00am S 7 8 - - - - 10 Mostly cloudy - 24.6 1004.8 0.0
 
Date/Time
EST
Wind Sea
Height
m
Swell Vis
km
Cloud Weather Temp
°C
Press
MSL
hPa
Rain since
9am
mm
Dir  Spd
kts
Gust
kts
Height
m
Period
s
Dir
03/11:30pm S 6 7 - - - - 10 - - 24.7 1004.9 0.0
03/11:00pm S 6 9 - - - - 10 - - 25.0 1005.1 0.0
03/10:30pm SSE 9 13 - - - - 10 - - 25.3 1005.0 0.0
03/10:00pm SSE 8 10 - - - - 10 Partly cloudy - 25.5 1005.2 0.0
03/09:30pm S 7 9 - - - - 10 Partly cloudy - 25.8 1005.3 0.0
03/09:00pm SSE 7 9 - - - - 10 Mostly cloudy - 25.9 1005.1 0.0
03/08:30pm SSE 9 11 - - - - 10 Partly cloudy - 26.5 1005.0 0.0
03/08:00pm SSE 9 12 - - - - 10 Partly cloudy - 26.5 1004.9 0.0
03/07:30pm SSE 10 14 - - - - 10 Partly cloudy - 26.6 1004.8 0.0
03/07:00pm SSE 11 16 - - - - 10 Partly cloudy - 26.7 1004.5 0.0
03/06:30pm SE 12 19 - - - - 10 - - 26.9 1004.4 0.0
03/06:00pm ESE 13 18 - - - - 10 Mostly clear - 27.3 1004.3 0.0
03/05:30pm ESE 16 23 - - - - 10 - - 28.0 1004.0 0.0
03/05:00pm ESE 18 26 - - - - 10 - - 28.6 1003.8 0.0
03/04:50pm ESE 16 26 - - - - 10 - - 28.9 1003.6 0.0
03/04:30pm ESE 15 22 - - - - 10 - - 29.2 1003.7 0.0
03/04:03pm ESE 18 28 - - - - 10 - - 29.6 1003.4 0.0
03/04:00pm ESE 19 28 - - - - 10 - - 29.6 1003.4 0.0
03/03:54pm ESE 18 28 - - - - 10 - - 29.7 1003.4 0.0
03/03:30pm ESE 18 26 - - - - 10 - - 29.7 1003.4 0.0
03/03:00pm ESE 19 27 - - - - 10 - - 30.1 1003.6 0.0
03/02:30pm ESE 17 24 - - - - 10 - - 30.3 1003.9 0.0
03/02:00pm ESE 17 24 - - - - 10 - - 30.1 1004.1 0.0
03/01:30pm SE 15 21 - - - - 10 - - 31.2 1004.5 0.0
03/01:00pm ESE 17 22 - - - - 10 - - 30.4 1004.7 0.0
03/12:30pm SE 18 26 - - - - 10 - - 30.7 1004.8 0.0
03/12:00pm SE 17 23 - - - - 10 Mostly clear - 30.7 1005.3 0.0
03/11:30am SSE 16 23 - - - - 10 Partly cloudy - 29.6 1005.6 0.0
03/11:00am SE 18 24 - - - - 10 - - 30.0 1006.1 0.0
03/10:30am SE 18 25 - - - - 10 Partly cloudy - 29.7 1006.5 0.0
03/10:00am SE 16 23 - - - - 10 Partly cloudy - 29.5 1006.6 0.0
03/09:30am SSE 13 18 - - - - 10 Partly cloudy - 28.4 1006.8 0.0
03/09:00am SSE 11 15 - - - - 10 Mostly cloudy - 27.8 1006.9 0.2
03/08:30am SSE 13 18 - - - - 10 Partly cloudy - 27.6 1006.7 0.2
03/08:00am SSE 11 16 - - - - 10 Partly cloudy - 26.8 1006.5 0.2
03/07:30am S 11 15 - - - - 10 Partly cloudy - 26.1 1006.1 0.2
03/07:00am S 9 13 - - - - 10 Partly cloudy - 25.1 1005.5 0.2
03/06:30am S 8 11 - - - - 10 Partly cloudy - 24.6 1005.4 0.2
03/06:00am S 6 8 - - - - 10 Mostly clear - 24.1 1005.0 0.2
03/05:30am S 7 9 - - - - 10 Partly cloudy - 24.2 1004.6 0.2
03/05:00am S 6 7 - - - - 10 Partly cloudy - 24.3 1004.7 0.2
03/04:30am S 7 9 - - - - 10 Partly cloudy - 24.4 1004.5 0.2
03/04:00am S 7 9 - - - - 10 Partly cloudy - 24.3 1004.2 0.2
03/03:30am S 7 9 - - - - 10 Partly cloudy - 24.4 1004.2 0.2
03/03:00am S 7 9 - - - - 10 Mostly clear - 24.8 1004.3 0.2
03/02:30am S 7 9 - - - - 10 - - 24.7 1004.5 0.2
03/02:00am S 5 8 - - - - 10 Partly cloudy - 24.5 1004.8 0.2
03/01:30am S 6 8 - - - - 10 Partly cloudy - 24.5 1004.7 0.2
03/01:00am S 6 8 - - - - 10 Partly cloudy - 24.9 1005.1 0.2
03/12:30am S 7 9 - - - - 10 Partly cloudy - 25.1 1005.1 0.2
03/12:00am S 8 11 - - - - 10 Mostly cloudy - 25.4 1005.4 0.2
 
Date/Time
EST
Wind Sea
Height
m
Swell Vis
km
Cloud Weather Temp
°C
Press
MSL
hPa
Rain since
9am
mm
Dir  Spd
kts
Gust
kts
Height
m
Period
s
Dir
02/11:30pm SSE 8 11 - - - - 10 Partly cloudy - 25.3 1005.7 0.2
02/11:00pm SSE 8 11 - - - - 10 Partly cloudy - 25.6 1005.9 0.2
02/10:30pm SSE 10 13 - - - - 10 Partly cloudy - 26.1 1005.8 0.2
02/10:00pm SSE 8 9 - - - - 10 Partly cloudy - 26.2 1005.9 0.2
02/09:30pm SSE 11 15 - - - - 10 Partly cloudy - 26.6 1005.6 0.2
02/09:00pm SSE 11 15 - - - - 10 Cloudy - 26.8 1005.5 0.2
02/08:30pm SE 12 17 - - - - 10 - - 26.8 1005.1 0.2
02/08:00pm SE 12 17 - - - - 10 - - 27.0 1004.8 0.2
02/07:30pm SE 14 18 - - - - 10 Partly cloudy - 27.2 1004.7 0.2
02/07:00pm SE 13 17 - - - - 10 Partly cloudy - 27.2 1004.7 0.2
02/06:30pm SE 13 16 - - - - 10 Partly cloudy - 27.4 1004.5 0.2
02/06:00pm SE 11 16 - - - - 10 Cloudy - 27.9 1004.3 0.2
02/05:30pm SE 15 19 - - - - 10 Partly cloudy - 28.3 1003.9 0.2
02/05:00pm SE 15 21 - - - - 10 Partly cloudy - 28.4 1003.6 0.2
02/04:30pm SE 17 23 - - - - 10 Partly cloudy - 28.7 1003.5 0.2
02/04:00pm ESE 17 25 - - - - 10 Partly cloudy - 29.0 1003.5 0.2
02/03:30pm ESE 16 23 - - - - 10 Partly cloudy - 28.8 1003.6 0.2
02/03:00pm SE 17 24 - - - - 10 Cloudy - 29.4 1003.8 0.2
02/02:30pm SE 19 26 - - - - 10 Partly cloudy - 29.2 1003.7 0.2
02/02:00pm ESE 18 24 - - - - 10 Partly cloudy - 29.0 1003.8 0.2
02/01:30pm SE 18 26 - - - - 10 Partly cloudy - 30.0 1003.9 0.2
02/01:00pm SE 19 26 - - - - 10 Partly cloudy - 29.5 1004.0 0.2
02/12:30pm ESE 18 25 - - - - 10 Partly cloudy - 30.1 1004.1 0.2
02/12:00pm ESE 17 24 - - - - 10 Mostly cloudy Recent precip. 30.3 1004.6 0.2
02/11:30am SE 20 26 - - - - 10 Partly cloudy - 29.2 1004.8 0.0
02/11:00am SE 17 24 - - - - 10 Partly cloudy - 29.1 1004.9 0.0
02/10:30am SE 16 24 - - - - 10 Partly cloudy - 29.5 1005.3 0.0
02/10:00am SE 13 20 - - - - 10 Partly cloudy - 29.0 1005.5 0.0
02/09:30am SE 14 21 - - - - 10 Partly cloudy - 27.0 1005.8 0.0
02/09:00am SE 11 17 - - - - 10 Cloudy Showers 26.3 1005.8 14.2
02/08:30am SSE 8 11 - - - - 10 Partly cloudy - 26.3 1005.8 14.0
02/08:00am SSE 8 11 - - - - 10 Partly cloudy - 26.1 1005.6 14.0
02/07:30am SSE 7 10 - - - - 10 Partly cloudy - 25.4 1005.5 14.0
02/07:24am SSE 6 10 - - - - 10 Partly cloudy - 25.3 1005.4 14.0
02/07:23am SSE 6 10 - - - - 10 Partly cloudy - 25.3 1005.4 14.0
02/07:07am SE 8 12 - - - - 3 Partly cloudy - 25.1 1005.3 13.4
02/07:00am SE 10 13 - - - - 4 Partly cloudy - 25.3 1005.1 12.4
02/06:52am SSE 9 12 - - - - 6 Partly cloudy - 25.6 1004.9 10.2
02/06:30am SE 10 13 - - - - 10 Partly cloudy - 26.5 1004.6 9.6
02/06:00am SE 10 15 - - - - 10 Cloudy - 26.3 1004.2 9.6
02/05:30am SE 9 12 - - - - 10 Partly cloudy - 26.3 1003.9 9.6
02/05:00am SE 12 17 - - - - 10 Partly cloudy - 26.4 1003.7 9.6
02/04:30am SE 11 16 - - - - 10 Partly cloudy - 26.3 1003.4 9.6
02/04:00am SE 10 15 - - - - 10 Partly cloudy - 25.9 1003.4 9.6
02/03:30am SE 11 17 - - - - 10 Partly cloudy - 25.9 1003.3 9.6
02/03:00am SE 13 17 - - - - 10 Cloudy Rain 25.8 1003.3 9.6
02/02:30am SE 14 21 - - - - 10 Partly cloudy - 25.9 1003.4 9.6
02/02:00am SSE 11 17 - - - - 10 Partly cloudy - 25.6 1003.7 9.6
02/01:30am SSE 11 15 - - - - 10 Partly cloudy - 25.7 1004.0 9.6

Other formats

Comma delimited format used in spreadsheet applications
http://www.bom.gov.au/fwo/IDQ60701/IDQ60701.94365.axf

JavaScript Object Notation format (JSON) in row-major order
http://www.bom.gov.au/fwo/IDQ60701/IDQ60701.94365.json

Data quality

Most of these data are generated automatically and are frequently updated. Quality checks on data are not normally performed. It is possible for incorrect values to appear. Refer to information at About Latest Weather Observations and please check the disclaimer before using these data.